Charles M. Schulz Sonoma County Airport Santa Rosa US
ICAO: KSTS
IATA: STS
Category: Medium
Scheduled Services: No

Elevation: 128 ft
TransAlt. 18000 ft.

Airport Communications:
NORCAL APP/DEP:127.8
ATIS:120.55
CTAF:118.5
GND:121.9
SANTA ROSA TWR:118.5
UNICOM:122.95

KSTS Zoom In..

If you have problems with the map follow the link
https://www.worldairports.se/pages/airport.php?
ICAO=KSTS

Runways:

(A) RW 01 length 5020 ft width 100 ft
---- / hdg 13

(B) RW 14 length 5121 ft width 150 ft
---- / hdg 141

(C) RW 19 length 5020 ft width 100 ft
---- / hdg 193

(D) RW 32 length 5121 ft width 150 ft
ILS 109.30 / hdg 321

Location; KSTS
Day. 13 / Time. 21.00 Zulu
* Altimeter: 30.16
* Temperature: 13° c. 55.4°f.
* Wind from: 000° Speed 00 kn.
Dewpoint: 12° c.
Visibility: 10 Statute Miles.
Clouds: Scattered 800 ft.
Clouds: Overcast 1600 ft.
Conditions: Light Rain.

KSTS 132100Z 00000KT 10SM -RA SCT008 OVC016 13/12 A3016 RMK AO2 RAB2057 P0000 T01280117


Wind - Calm.

 
 
jpsmedia worldairports.se 2019   terms of use